createdAt,value
2023-02-23T00:01:57.765Z,33.80
2023-02-23T00:04:24.663Z,32.53
2023-02-23T00:06:52.169Z,32.63
2023-02-23T00:09:24.952Z,33.67
2023-02-23T00:11:55.124Z,33.70
2023-02-23T00:14:24.653Z,32.30
2023-02-23T00:16:51.186Z,32.83
2023-02-23T00:19:17.573Z,33.20
2023-02-23T00:21:43.926Z,34.67
2023-02-23T00:24:11.462Z,33.33
2023-02-23T00:26:39.031Z,32.37
2023-02-23T00:29:06.925Z,33.40
2023-02-23T00:31:34.084Z,34.03
2023-02-23T00:34:01.945Z,33.50
2023-02-23T00:36:33.251Z,34.17
2023-02-23T00:39:00.861Z,32.53
2023-02-23T00:41:30.560Z,33.80
2023-02-23T00:43:57.890Z,33.40
2023-02-23T00:46:27.031Z,35.17
2023-02-23T00:48:55.371Z,34.47
2023-02-23T00:51:22.731Z,33.97
2023-02-23T00:53:49.472Z,34.17
2023-02-23T00:56:16.260Z,33.43
2023-02-23T00:58:42.707Z,35.13
2023-02-23T01:01:10.190Z,33.30
2023-02-23T01:03:37.432Z,35.00
2023-02-23T01:06:06.192Z,36.13
2023-02-23T01:08:34.102Z,36.13
2023-02-23T01:11:05.704Z,34.60
2023-02-23T01:13:32.264Z,34.80
2023-02-23T01:15:58.603Z,36.70
2023-02-23T01:18:25.026Z,36.47
2023-02-23T01:20:51.399Z,35.67
2023-02-23T01:23:19.282Z,35.30
2023-02-23T01:25:46.588Z,36.33
2023-02-23T01:28:12.834Z,36.07
2023-02-23T01:30:39.893Z,34.60
2023-02-23T01:33:06.310Z,34.30
2023-02-23T01:35:33.236Z,36.30
2023-02-23T01:37:59.733Z,35.10
2023-02-23T01:40:29.797Z,35.73
2023-02-23T01:42:58.305Z,35.70
2023-02-23T01:45:30.883Z,36.20
2023-02-23T01:48:01.591Z,37.67
2023-02-23T01:50:28.988Z,35.93
2023-02-23T01:52:55.437Z,36.47
2023-02-23T01:55:24.494Z,37.73
2023-02-23T01:57:54.273Z,37.10
2023-02-23T02:00:20.748Z,38.07
2023-02-23T02:02:48.788Z,38.70
2023-02-23T02:05:18.107Z,38.00
2023-02-23T02:07:47.136Z,36.80
2023-02-23T02:10:13.478Z,37.93
2023-02-23T02:12:44.999Z,38.83
2023-02-23T02:15:17.227Z,36.47
2023-02-23T02:18:03.280Z,37.03
2023-02-23T02:20:40.802Z,37.77
2023-02-23T02:23:10.066Z,37.90
2023-02-23T02:25:44.889Z,39.20
2023-02-23T02:28:27.137Z,38.43
2023-02-23T02:30:56.480Z,38.07
2023-02-23T02:33:38.161Z,38.07
2023-02-23T02:36:10.650Z,39.90
2023-02-23T02:38:55.622Z,41.37
2023-02-23T02:41:35.599Z,41.23
2023-02-23T02:44:27.316Z,41.47
2023-02-23T02:46:58.131Z,41.10
2023-02-23T02:49:32.601Z,41.80
2023-02-23T02:52:01.512Z,41.60
2023-02-23T02:54:30.706Z,42.50
2023-02-23T02:56:58.186Z,42.47
2023-02-23T02:59:43.099Z,43.97
2023-02-23T03:02:34.959Z,43.70
2023-02-23T03:05:19.883Z,42.63
2023-02-23T03:08:34.297Z,41.30
2023-02-23T03:11:26.056Z,42.30
2023-02-23T03:14:18.488Z,42.23
2023-02-23T03:17:15.874Z,42.70
2023-02-23T03:20:11.971Z,41.50
2023-02-23T03:23:00.345Z,42.80
2023-02-23T03:25:51.323Z,41.93
2023-02-23T03:28:41.653Z,41.67
2023-02-23T03:31:32.370Z,43.57
2023-02-23T03:34:33.212Z,42.90
2023-02-23T03:37:36.172Z,42.77
2023-02-23T03:40:24.627Z,44.33
2023-02-23T03:43:10.187Z,43.50
2023-02-23T03:45:55.632Z,43.90
2023-02-23T03:48:42.584Z,43.97
2023-02-23T03:51:30.639Z,44.70
2023-02-23T03:54:22.728Z,44.60
2023-02-23T03:57:09.154Z,46.13
2023-02-23T03:59:57.992Z,46.07
2023-02-23T04:02:43.563Z,45.43
2023-02-23T04:05:30.830Z,46.23
2023-02-23T04:08:18.664Z,45.30
2023-02-23T04:11:08.673Z,44.73
2023-02-23T04:13:36.339Z,46.03
2023-02-23T04:16:07.600Z,45.57
2023-02-23T04:18:34.886Z,46.43
2023-02-23T04:21:01.725Z,46.40
2023-02-23T04:23:28.174Z,46.60
2023-02-23T04:25:54.975Z,46.43
2023-02-23T04:28:21.812Z,46.23
2023-02-23T04:30:48.126Z,47.53
2023-02-23T04:33:14.713Z,46.00
2023-02-23T04:35:41.624Z,45.30
2023-02-23T04:38:07.958Z,44.97
2023-02-23T04:40:34.495Z,44.37
2023-02-23T04:43:00.738Z,45.77
2023-02-23T04:45:27.097Z,43.33
2023-02-23T04:47:53.843Z,44.33
2023-02-23T04:50:20.519Z,43.37
2023-02-23T04:52:47.576Z,43.13
2023-02-23T04:55:18.278Z,43.43
2023-02-23T04:57:44.661Z,45.47
2023-02-23T05:00:11.334Z,50.90
2023-02-23T05:02:38.490Z,45.73
2023-02-23T05:05:05.145Z,43.03
2023-02-23T05:07:31.448Z,43.10
2023-02-23T05:09:57.691Z,43.90
2023-02-23T05:12:24.036Z,43.13
2023-02-23T05:14:50.453Z,43.13
2023-02-23T05:17:16.973Z,46.17
2023-02-23T05:19:43.248Z,45.10
2023-02-23T05:22:12.469Z,43.83
2023-02-23T05:24:39.729Z,43.90
2023-02-23T05:27:06.960Z,46.23
2023-02-23T05:29:33.379Z,42.33
2023-02-23T05:31:59.816Z,42.63
2023-02-23T05:34:26.281Z,45.03
2023-02-23T05:36:54.128Z,48.00
2023-02-23T05:39:20.999Z,45.63
2023-02-23T05:41:47.565Z,43.80
2023-02-23T05:44:13.819Z,42.60
2023-02-23T05:46:40.197Z,44.37
2023-02-23T05:49:06.421Z,44.80
2023-02-23T05:51:34.073Z,43.00
2023-02-23T05:54:00.588Z,41.47
2023-02-23T05:56:26.901Z,39.97
2023-02-23T05:58:54.770Z,39.30
2023-02-23T06:01:21.598Z,38.03
2023-02-23T06:03:48.248Z,37.83
2023-02-23T06:06:15.170Z,36.30
2023-02-23T06:08:42.002Z,35.73
2023-02-23T06:11:08.471Z,36.93
2023-02-23T06:13:34.808Z,35.47
2023-02-23T06:16:01.302Z,35.90
2023-02-23T06:18:28.116Z,35.27
2023-02-23T06:20:54.442Z,35.23
2023-02-23T06:23:20.834Z,34.90
2023-02-23T06:25:47.480Z,34.00
2023-02-23T06:28:14.206Z,35.17
2023-02-23T06:30:40.723Z,35.97
2023-02-23T06:33:07.186Z,35.50
2023-02-23T06:35:34.046Z,34.63
2023-02-23T06:38:00.703Z,35.70
2023-02-23T06:40:27.618Z,35.03
2023-02-23T06:42:53.889Z,90.03
2023-02-23T06:45:20.370Z,39.37
2023-02-23T06:47:47.380Z,39.60
2023-02-23T06:50:14.518Z,37.10
2023-02-23T06:52:41.108Z,37.67
2023-02-23T06:55:07.884Z,37.40
2023-02-23T06:57:34.191Z,39.93
2023-02-23T07:00:01.759Z,40.37
2023-02-23T07:02:28.121Z,37.93
2023-02-23T07:04:54.344Z,37.83
2023-02-23T07:07:20.628Z,37.87
2023-02-23T07:09:46.915Z,38.23
2023-02-23T07:12:13.143Z,38.40
2023-02-23T07:14:39.466Z,38.03
2023-02-23T07:17:05.921Z,36.90
2023-02-23T07:19:32.281Z,38.20
2023-02-23T07:21:58.647Z,37.70
2023-02-23T07:24:24.915Z,36.43
2023-02-23T07:26:52.016Z,36.43
2023-02-23T07:29:18.791Z,36.77
2023-02-23T07:31:45.152Z,36.03
2023-02-23T07:34:11.505Z,34.77
2023-02-23T07:36:37.854Z,34.93
2023-02-23T07:39:04.797Z,35.20
2023-02-23T07:41:31.319Z,40.27
2023-02-23T07:43:58.294Z,36.03
2023-02-23T07:46:24.982Z,39.43
2023-02-23T07:48:51.272Z,33.90
2023-02-23T07:51:17.954Z,35.03
2023-02-23T07:53:44.388Z,35.93
2023-02-23T07:56:11.315Z,33.03
2023-02-23T07:58:38.472Z,31.43
2023-02-23T08:01:05.044Z,31.80
2023-02-23T08:03:31.528Z,31.80
2023-02-23T08:05:57.859Z,31.40
2023-02-23T08:08:24.305Z,31.97
2023-02-23T08:10:50.846Z,31.57
2023-02-23T08:13:17.175Z,31.53
2023-02-23T08:15:43.704Z,31.40
2023-02-23T08:18:10.399Z,30.73
2023-02-23T08:20:37.940Z,35.30
2023-02-23T08:23:04.204Z,31.27
2023-02-23T08:25:30.793Z,34.17
2023-02-23T08:27:59.529Z,30.07
2023-02-23T08:30:25.902Z,29.33
2023-02-23T08:32:52.219Z,30.67
2023-02-23T08:35:20.254Z,30.17
2023-02-23T08:37:46.518Z,29.77
2023-02-23T08:40:15.317Z,29.73
2023-02-23T08:42:42.009Z,30.20
2023-02-23T08:45:08.739Z,29.13
2023-02-23T08:47:36.092Z,30.03
2023-02-23T08:50:02.396Z,32.70
2023-02-23T08:52:28.889Z,31.27
2023-02-23T08:54:56.273Z,31.17
2023-02-23T08:57:22.687Z,38.67
2023-02-23T08:59:48.991Z,27.23
2023-02-23T09:02:15.305Z,28.13
2023-02-23T09:04:42.018Z,27.80
2023-02-23T09:07:09.196Z,27.30
2023-02-23T09:09:35.466Z,26.17
2023-02-23T09:12:01.804Z,26.47
2023-02-23T09:14:28.269Z,26.17
2023-02-23T09:16:54.542Z,26.73
2023-02-23T09:19:20.799Z,26.90
2023-02-23T09:21:47.140Z,25.63
2023-02-23T09:24:13.462Z,25.67
2023-02-23T09:26:45.630Z,26.00
2023-02-23T09:29:12.236Z,25.27
2023-02-23T09:31:38.950Z,24.93
2023-02-23T09:34:05.364Z,24.60
2023-02-23T09:36:31.881Z,24.27
2023-02-23T09:38:58.564Z,23.97
2023-02-23T09:41:34.122Z,24.17
2023-02-23T09:44:12.835Z,24.07
2023-02-23T09:46:39.132Z,24.30
2023-02-23T09:49:08.253Z,23.23
2023-02-23T09:51:38.485Z,25.43
2023-02-23T09:54:05.878Z,22.23
2023-02-23T09:56:39.874Z,21.23
2023-02-23T09:59:08.639Z,21.60
2023-02-23T10:01:42.003Z,22.23
2023-02-23T10:04:20.470Z,23.37
2023-02-23T10:06:59.157Z,23.10
2023-02-23T10:09:37.057Z,23.50
2023-02-23T10:12:09.938Z,23.07
2023-02-23T10:15:14.616Z,23.57
2023-02-23T10:17:50.001Z,23.30
2023-02-23T10:20:34.688Z,23.47
2023-02-23T10:23:11.940Z,22.57
2023-02-23T10:25:41.397Z,24.30
2023-02-23T10:28:11.503Z,21.87
2023-02-23T10:30:40.384Z,22.00
2023-02-23T10:33:09.678Z,22.13
2023-02-23T10:35:37.054Z,22.47
2023-02-23T10:38:03.769Z,22.37
2023-02-23T10:40:32.928Z,21.97
2023-02-23T10:43:02.854Z,22.10
2023-02-23T10:45:29.958Z,21.47
2023-02-23T10:48:05.377Z,21.93
2023-02-23T10:50:32.612Z,22.23
2023-02-23T10:53:12.662Z,20.27
2023-02-23T10:55:38.958Z,21.43
2023-02-23T10:58:10.434Z,20.33
2023-02-23T11:00:38.607Z,19.60
2023-02-23T11:03:18.680Z,20.00
2023-02-23T11:05:46.666Z,19.40
2023-02-23T11:08:21.123Z,27.00
2023-02-23T11:11:02.687Z,23.50
2023-02-23T11:13:49.196Z,18.30
2023-02-23T11:16:21.742Z,19.10
2023-02-23T11:18:59.007Z,19.40
2023-02-23T11:21:25.478Z,19.77
2023-02-23T11:23:53.348Z,18.77
2023-02-23T11:26:22.894Z,19.73
2023-02-23T11:28:52.379Z,19.47
2023-02-23T11:31:20.880Z,20.90
2023-02-23T11:33:50.002Z,22.40
2023-02-23T11:36:22.465Z,23.77
2023-02-23T11:38:56.358Z,24.13
2023-02-23T11:41:24.386Z,25.20
2023-02-23T11:43:52.150Z,25.03
2023-02-23T11:46:20.284Z,23.73
2023-02-23T11:49:05.069Z,25.27
2023-02-23T11:51:39.270Z,24.33
2023-02-23T11:54:07.120Z,35.37
2023-02-23T11:56:34.393Z,28.07
2023-02-23T11:59:08.288Z,25.57
2023-02-23T12:01:37.041Z,23.97
2023-02-23T12:04:03.702Z,22.10
2023-02-23T12:06:32.984Z,20.53
2023-02-23T12:09:23.190Z,21.33
2023-02-23T12:12:09.730Z,18.37
2023-02-23T12:14:39.369Z,20.40
2023-02-23T12:17:32.270Z,21.73
2023-02-23T12:20:02.144Z,23.73
2023-02-23T12:22:46.114Z,25.37
2023-02-23T12:25:30.913Z,26.47
2023-02-23T12:28:18.199Z,27.73
2023-02-23T12:30:54.814Z,27.73
2023-02-23T12:33:30.074Z,26.17
2023-02-23T12:36:03.847Z,27.37
2023-02-23T12:38:33.331Z,22.70
2023-02-23T12:41:05.640Z,20.00
2023-02-23T12:43:35.153Z,20.33
2023-02-23T12:46:01.493Z,20.37
2023-02-23T12:48:35.647Z,22.40
2023-02-23T12:51:04.206Z,24.17
2023-02-23T12:53:30.582Z,23.60
2023-02-23T12:56:18.526Z,23.50
2023-02-23T12:59:06.672Z,22.03
2023-02-23T13:01:42.922Z,21.23
2023-02-23T13:04:12.205Z,21.00
2023-02-23T13:06:43.904Z,21.13
2023-02-23T13:09:30.245Z,21.07
2023-02-23T13:11:56.565Z,22.53
2023-02-23T13:14:29.682Z,21.63
2023-02-23T13:17:02.610Z,21.80
2023-02-23T13:19:28.903Z,22.83
2023-02-23T13:21:55.160Z,22.60
2023-02-23T13:24:26.856Z,22.40
2023-02-23T13:27:11.927Z,22.73
2023-02-23T13:29:55.141Z,24.53
2023-02-23T13:32:23.917Z,23.60
2023-02-23T13:34:52.689Z,24.33
2023-02-23T13:37:20.816Z,23.87
2023-02-23T13:40:05.269Z,22.57
2023-02-23T13:42:52.686Z,24.50
2023-02-23T13:45:25.473Z,23.87
2023-02-23T13:48:04.644Z,22.13
2023-02-23T13:50:49.780Z,23.20
2023-02-23T13:53:33.651Z,22.37
2023-02-23T13:56:26.251Z,21.93
2023-02-23T13:58:58.547Z,19.70
2023-02-23T14:01:32.719Z,27.67
2023-02-23T14:04:00.584Z,20.53
2023-02-23T14:06:28.363Z,19.93
2023-02-23T14:09:00.892Z,20.47
2023-02-23T14:11:28.446Z,20.97
2023-02-23T14:13:59.576Z,21.13
2023-02-23T14:16:26.391Z,19.67
2023-02-23T14:18:54.601Z,19.47
2023-02-23T14:21:35.316Z,19.67
2023-02-23T14:24:21.470Z,19.20
2023-02-23T14:27:08.415Z,18.80
2023-02-23T14:29:41.385Z,17.77
2023-02-23T14:32:11.157Z,18.60
2023-02-23T14:34:43.716Z,18.70
2023-02-23T14:37:17.398Z,20.70
2023-02-23T14:39:43.721Z,20.60
2023-02-23T14:42:19.621Z,20.17
2023-02-23T14:44:51.242Z,17.53
2023-02-23T14:47:19.858Z,17.93
2023-02-23T14:49:51.334Z,17.97
2023-02-23T14:52:24.493Z,17.10
2023-02-23T14:54:51.144Z,17.40
2023-02-23T14:57:19.014Z,17.40
2023-02-23T14:59:46.188Z,17.87
2023-02-23T15:02:19.948Z,17.87
2023-02-23T15:04:46.333Z,16.87
2023-02-23T15:07:18.637Z,19.23
2023-02-23T15:09:46.158Z,21.37
2023-02-23T15:12:26.962Z,18.57
2023-02-23T15:14:55.549Z,16.90
2023-02-23T15:17:23.492Z,16.83
2023-02-23T15:19:56.160Z,17.23
2023-02-23T15:22:35.238Z,16.57
2023-02-23T15:25:03.263Z,17.20
2023-02-23T15:27:35.891Z,16.87
2023-02-23T15:30:22.797Z,16.33
2023-02-23T15:32:49.420Z,16.97
2023-02-23T15:35:15.886Z,16.37
2023-02-23T15:40:23.485Z,16.73
2023-02-23T15:42:52.047Z,16.87
2023-02-23T15:45:33.589Z,17.13
2023-02-23T15:48:05.035Z,16.77
2023-02-23T15:50:37.422Z,17.70
2023-02-23T15:53:13.594Z,23.47
2023-02-23T15:55:42.282Z,18.23
2023-02-23T15:58:21.142Z,19.07
2023-02-23T16:00:55.402Z,18.27
2023-02-23T16:03:30.535Z,18.93
2023-02-23T16:06:02.072Z,18.80
2023-02-23T16:08:29.650Z,19.00
2023-02-23T16:11:07.193Z,19.33
2023-02-23T16:13:33.617Z,19.67
2023-02-23T16:16:00.015Z,21.50
2023-02-23T16:18:32.657Z,20.73
2023-02-23T16:20:59.736Z,20.53
2023-02-23T16:23:45.492Z,20.23
2023-02-23T16:26:17.129Z,19.70
2023-02-23T16:28:44.845Z,19.17
2023-02-23T16:31:15.885Z,21.13
2023-02-23T16:33:42.246Z,21.07
2023-02-23T16:36:14.081Z,20.57
2023-02-23T16:38:56.631Z,20.50
2023-02-23T16:41:23.738Z,18.83
2023-02-23T16:43:51.478Z,21.63
2023-02-23T16:46:18.518Z,20.30
2023-02-23T16:48:44.993Z,19.47
2023-02-23T16:51:15.757Z,19.67
2023-02-23T16:53:42.915Z,19.43
2023-02-23T16:56:13.373Z,19.87
2023-02-23T16:58:41.355Z,20.73
2023-02-23T17:01:07.684Z,20.23
2023-02-23T17:03:36.019Z,21.73
2023-02-23T17:06:04.760Z,19.03
2023-02-23T17:08:31.712Z,20.63
2023-02-23T17:10:58.040Z,22.07
2023-02-23T17:16:52.911Z,65.00
2023-02-23T17:19:20.152Z,30.93
2023-02-23T17:21:46.844Z,23.27
2023-02-23T17:24:13.205Z,21.77
2023-02-23T17:26:39.675Z,21.13
2023-02-23T17:29:06.026Z,20.67
2023-02-23T17:31:32.734Z,21.13
2023-02-23T17:33:59.676Z,19.90
2023-02-23T17:36:27.482Z,19.80
2023-02-23T17:38:58.483Z,21.07
2023-02-23T17:41:25.735Z,21.77
2023-02-23T17:43:52.009Z,21.37
2023-02-23T17:46:18.966Z,21.20
2023-02-23T17:48:47.143Z,22.37
2023-02-23T17:51:16.129Z,22.17
2023-02-23T17:53:42.829Z,22.47
2023-02-23T17:56:10.111Z,22.03
2023-02-23T17:58:36.978Z,21.70
2023-02-23T18:01:04.752Z,21.57
2023-02-23T18:03:32.273Z,22.27
2023-02-23T18:05:59.668Z,20.57
2023-02-23T18:08:26.183Z,21.30
2023-02-23T18:10:53.372Z,21.47
2023-02-23T18:13:20.069Z,21.17
2023-02-23T18:15:50.184Z,20.30
2023-02-23T18:18:16.732Z,19.80
2023-02-23T18:20:50.480Z,19.87
2023-02-23T18:23:17.143Z,20.53
2023-02-23T18:25:43.420Z,19.90
2023-02-23T18:28:12.667Z,19.87
2023-02-23T18:30:39.687Z,19.33
2023-02-23T18:33:06.738Z,19.43
2023-02-23T18:35:37.742Z,20.07
2023-02-23T18:38:05.166Z,19.70
2023-02-23T18:40:32.239Z,26.77
2023-02-23T18:42:59.393Z,32.47
2023-02-23T18:45:27.022Z,19.00
2023-02-23T18:47:53.940Z,18.67
2023-02-23T18:50:20.383Z,18.37
2023-02-23T18:52:51.072Z,19.03
2023-02-23T18:55:18.080Z,18.90
2023-02-23T18:57:44.427Z,19.30
2023-02-23T19:00:13.416Z,20.07
2023-02-23T19:02:40.495Z,19.23
2023-02-23T19:05:07.737Z,19.63
2023-02-23T19:07:34.738Z,19.30
2023-02-23T19:10:01.926Z,19.50
2023-02-23T19:12:28.874Z,19.27
2023-02-23T19:14:57.458Z,20.70
2023-02-23T19:17:27.341Z,20.03
2023-02-23T19:19:56.401Z,18.87
2023-02-23T19:22:23.004Z,20.33
2023-02-23T19:24:51.665Z,19.27
2023-02-23T19:27:18.157Z,19.50
2023-02-23T19:29:45.496Z,19.13
2023-02-23T19:32:15.213Z,18.63
2023-02-23T19:34:42.350Z,18.70
2023-02-23T19:37:09.076Z,27.30
2023-02-23T19:39:35.667Z,34.17
2023-02-23T19:42:02.052Z,20.13
2023-02-23T19:44:29.617Z,19.53
2023-02-23T19:46:57.017Z,18.80
2023-02-23T19:49:23.840Z,18.90
2023-02-23T19:51:52.752Z,20.03
2023-02-23T19:54:21.261Z,19.67
2023-02-23T19:56:49.822Z,19.53
2023-02-23T19:59:16.164Z,19.33
2023-02-23T20:01:44.937Z,20.03
2023-02-23T20:04:11.399Z,19.33
2023-02-23T20:06:44.803Z,20.20
2023-02-23T20:09:11.310Z,19.60
2023-02-23T20:11:37.610Z,18.87
2023-02-23T20:14:07.361Z,20.43
2023-02-23T20:16:34.358Z,136.43
2023-02-23T20:19:00.869Z,21.57
2023-02-23T20:21:29.714Z,18.73
2023-02-23T20:23:56.054Z,17.43
2023-02-23T20:26:23.710Z,17.40
2023-02-23T20:28:51.087Z,15.77
2023-02-23T20:31:20.958Z,15.07
2023-02-23T20:33:50.193Z,16.17
2023-02-23T20:36:17.023Z,15.47
2023-02-23T20:38:43.461Z,13.30
2023-02-23T20:41:09.901Z,13.57
2023-02-23T20:43:36.981Z,13.17
2023-02-23T20:46:03.543Z,11.80
2023-02-23T20:48:30.690Z,10.97
2023-02-23T20:50:57.976Z,11.33
2023-02-23T20:53:25.094Z,11.87
2023-02-23T20:55:51.797Z,11.83
2023-02-23T20:58:24.851Z,11.23
2023-02-23T21:00:56.519Z,10.77
2023-02-23T21:03:26.253Z,11.63
2023-02-23T21:05:52.901Z,12.00
2023-02-23T21:08:19.530Z,11.33
2023-02-23T21:10:45.992Z,11.40
2023-02-23T21:13:13.465Z,11.07
2023-02-23T21:15:40.368Z,10.77
2023-02-23T21:18:07.124Z,11.20
2023-02-23T21:20:33.505Z,10.83
2023-02-23T21:23:00.512Z,9.93
2023-02-23T21:25:27.184Z,10.63
2023-02-23T21:27:54.287Z,9.67
2023-02-23T21:30:21.644Z,9.27
2023-02-23T21:32:48.775Z,9.57
2023-02-23T21:35:15.519Z,9.60
2023-02-23T21:37:42.171Z,9.33
2023-02-23T21:40:10.343Z,9.53
2023-02-23T21:42:37.704Z,9.33
2023-02-23T21:45:04.262Z,10.13
2023-02-23T21:47:33.805Z,9.37
2023-02-23T21:50:00.091Z,9.73
2023-02-23T21:52:26.695Z,9.10
2023-02-23T21:54:53.167Z,9.53
2023-02-23T21:57:22.630Z,9.67
2023-02-23T21:59:49.263Z,10.33
2023-02-23T22:02:15.688Z,9.77
2023-02-23T22:04:42.050Z,10.77
2023-02-23T22:07:08.750Z,10.10
2023-02-23T22:09:35.465Z,10.50
2023-02-23T22:12:01.718Z,10.67
2023-02-23T22:14:27.946Z,10.40
2023-02-23T22:16:54.419Z,10.53
2023-02-23T22:19:20.991Z,10.37
2023-02-23T22:21:50.494Z,10.47
2023-02-23T22:24:17.424Z,10.87
2023-02-23T22:26:54.496Z,10.87
2023-02-23T22:29:22.008Z,10.50
2023-02-23T22:31:48.553Z,10.30
2023-02-23T22:34:15.196Z,10.33
2023-02-23T22:36:41.594Z,10.40
2023-02-23T22:39:13.135Z,10.77
2023-02-23T22:41:42.220Z,10.50
2023-02-23T22:44:09.679Z,10.63
2023-02-23T22:46:35.937Z,9.77
2023-02-23T22:49:02.207Z,10.47
2023-02-23T22:51:28.503Z,10.57
2023-02-23T22:53:54.805Z,11.63
2023-02-23T22:56:21.052Z,11.20
2023-02-23T22:58:49.666Z,12.27
2023-02-23T23:01:17.487Z,12.13
2023-02-23T23:03:47.913Z,12.20
2023-02-23T23:06:21.833Z,12.23
2023-02-23T23:08:49.368Z,12.47
2023-02-23T23:11:18.664Z,13.10
2023-02-23T23:13:49.930Z,14.20
2023-02-23T23:16:30.559Z,13.40
2023-02-23T23:19:02.357Z,13.77
2023-02-23T23:21:29.884Z,13.47
2023-02-23T23:23:57.560Z,14.73
2023-02-23T23:26:25.600Z,14.23
2023-02-23T23:28:55.953Z,13.67
2023-02-23T23:31:27.855Z,14.50
2023-02-23T23:33:55.712Z,14.77
2023-02-23T23:36:25.825Z,14.30
2023-02-23T23:38:52.928Z,14.30
2023-02-23T23:41:24.454Z,14.13
2023-02-23T23:43:56.072Z,13.87
2023-02-23T23:46:26.855Z,15.20
2023-02-23T23:48:54.332Z,14.40
2023-02-23T23:51:24.292Z,14.60
2023-02-23T23:53:54.799Z,15.33
2023-02-23T23:56:21.203Z,16.30
2023-02-23T23:58:51.146Z,16.23
